createdAt,value
2019-02-15T00:00:13.814Z,231.93
2019-02-15T00:02:48.356Z,235.17
2019-02-15T00:05:14.971Z,225.83
2019-02-15T00:07:41.647Z,240.00
2019-02-15T00:10:08.243Z,233.70
2019-02-15T00:12:34.853Z,232.00
2019-02-15T00:15:01.463Z,179.40
2019-02-15T00:17:31.556Z,169.83
2019-02-15T00:20:00.148Z,181.50
2019-02-15T00:22:26.835Z,190.33
2019-02-15T00:24:53.434Z,191.40
2019-02-15T00:27:20.053Z,191.00
2019-02-15T00:29:46.644Z,200.83
2019-02-15T00:32:13.406Z,187.67
2019-02-15T00:34:39.928Z,197.83
2019-02-15T00:37:06.510Z,169.10
2019-02-15T00:39:33.137Z,191.17
2019-02-15T00:41:59.746Z,176.40
2019-02-15T00:44:26.302Z,192.97
2019-02-15T00:46:54.832Z,166.83
2019-02-15T00:49:23.336Z,182.90
2019-02-15T00:51:51.841Z,187.93
2019-02-15T00:54:20.319Z,193.40
2019-02-15T00:56:48.833Z,202.67
2019-02-15T00:59:17.343Z,204.93
2019-02-15T01:01:46.044Z,196.33
2019-02-15T01:04:14.546Z,193.03
2019-02-15T01:06:43.032Z,181.17
2019-02-15T01:09:12.803Z,179.63
2019-02-15T01:11:41.525Z,187.00
2019-02-15T01:14:08.074Z,178.57
2019-02-15T01:16:34.699Z,174.23
2019-02-15T01:19:01.279Z,170.17
2019-02-15T01:21:27.856Z,165.23
2019-02-15T01:23:54.477Z,154.17
2019-02-15T01:26:23.007Z,120.57
2019-02-15T01:28:51.544Z,108.17
2019-02-15T01:31:20.071Z,104.90
2019-02-15T01:33:48.529Z,99.87
2019-02-15T01:36:17.055Z,97.13
2019-02-15T01:38:45.820Z,104.70
2019-02-15T01:41:14.431Z,89.83
2019-02-15T01:43:43.019Z,92.80
2019-02-15T01:46:11.627Z,94.37
2019-02-15T01:48:38.218Z,86.37
2019-02-15T01:51:04.753Z,78.83
2019-02-15T01:53:31.370Z,83.97
2019-02-15T01:56:54.229Z,74.53
2019-02-15T01:59:20.876Z,67.17
2019-02-15T02:01:47.474Z,107.73
2019-02-15T02:04:14.024Z,130.73
2019-02-15T02:06:40.624Z,135.97
2019-02-15T02:09:07.200Z,135.37
2019-02-15T02:11:33.925Z,126.13
2019-02-15T02:14:00.554Z,137.70
2019-02-15T02:16:27.180Z,145.53
2019-02-15T02:18:53.760Z,135.00
2019-02-15T02:21:20.365Z,132.63
2019-02-15T02:23:46.987Z,135.03
2019-02-15T02:26:13.562Z,131.73
2019-02-15T02:28:40.132Z,140.10
2019-02-15T02:31:06.821Z,136.53
2019-02-15T02:33:33.456Z,139.63
2019-02-15T02:36:01.329Z,132.87
2019-02-15T02:38:27.924Z,125.67
2019-02-15T02:40:54.494Z,127.33
2019-02-15T02:43:21.108Z,130.70
2019-02-15T02:45:48.939Z,132.30
2019-02-15T02:48:15.584Z,127.10
2019-02-15T02:50:42.175Z,125.90
2019-02-15T02:53:08.703Z,112.80
2019-02-15T02:55:35.307Z,112.13
2019-02-15T02:58:01.934Z,98.73
2019-02-15T03:00:33.649Z,105.07
2019-02-15T03:02:57.020Z,90.20
2019-02-15T03:05:23.574Z,84.13
2019-02-15T03:07:50.212Z,83.67
2019-02-15T03:10:17.332Z,83.03
2019-02-15T03:12:44.020Z,67.93
2019-02-15T03:15:10.593Z,71.23
2019-02-15T03:17:37.219Z,68.80
2019-02-15T03:20:05.936Z,71.57
2019-02-15T03:22:32.636Z,65.37
2019-02-15T03:24:59.269Z,56.37
2019-02-15T03:27:27.063Z,63.03
2019-02-15T03:29:53.635Z,62.80
2019-02-15T03:32:20.299Z,60.70
2019-02-15T03:34:47.049Z,57.70
2019-02-15T03:37:15.626Z,61.43
2019-02-15T03:39:44.147Z,62.37
2019-02-15T03:42:12.758Z,64.47
2019-02-15T03:44:39.306Z,61.27
2019-02-15T03:47:05.879Z,65.80
2019-02-15T03:49:32.458Z,68.13
2019-02-15T03:51:59.016Z,63.20
2019-02-15T03:54:25.664Z,64.80
2019-02-15T03:56:52.294Z,69.00
2019-02-15T03:59:18.867Z,64.73
2019-02-15T04:01:45.860Z,68.77
2019-02-15T04:04:12.414Z,61.43
2019-02-15T04:06:38.946Z,64.50
2019-02-15T04:09:05.815Z,73.63
2019-02-15T04:11:32.469Z,58.63
2019-02-15T04:13:59.186Z,64.20
2019-02-15T04:16:25.762Z,70.97
2019-02-15T04:18:52.367Z,72.23
2019-02-15T04:21:19.113Z,65.50
2019-02-15T04:23:45.711Z,72.83
2019-02-15T04:26:12.391Z,69.87
2019-02-15T04:28:38.953Z,65.33
2019-02-15T04:31:05.519Z,70.37
2019-02-15T04:33:32.181Z,72.37
2019-02-15T04:36:00.099Z,69.60
2019-02-15T04:38:26.822Z,66.67
2019-02-15T04:40:53.452Z,75.83
2019-02-15T04:43:20.056Z,72.33
2019-02-15T04:45:46.624Z,68.93
2019-02-15T04:48:13.185Z,72.70
2019-02-15T04:50:39.805Z,75.97
2019-02-15T04:53:06.448Z,69.30
2019-02-15T04:55:33.026Z,73.27
2019-02-15T04:57:59.648Z,79.50
2019-02-15T05:00:26.269Z,70.97
2019-02-15T05:02:52.814Z,69.37
2019-02-15T05:05:19.398Z,68.80
2019-02-15T05:07:46.314Z,76.27
2019-02-15T05:10:13.078Z,77.47
2019-02-15T05:12:39.734Z,77.47
2019-02-15T05:15:07.232Z,73.87
2019-02-15T05:17:33.969Z,83.07
2019-02-15T05:20:03.349Z,76.33
2019-02-15T05:22:29.910Z,73.23
2019-02-15T05:24:56.604Z,76.70
2019-02-15T05:27:23.301Z,74.20
2019-02-15T05:29:49.943Z,73.87
2019-02-15T05:32:16.704Z,83.93
2019-02-15T05:34:43.526Z,83.77
2019-02-15T05:37:10.131Z,79.63
2019-02-15T05:39:36.711Z,75.23
2019-02-15T05:42:03.263Z,84.03
2019-02-15T05:44:29.841Z,81.00
2019-02-15T05:46:56.885Z,70.33
2019-02-15T05:49:23.477Z,73.17
2019-02-15T05:51:50.131Z,73.43
2019-02-15T05:54:17.323Z,74.10
2019-02-15T05:56:44.113Z,81.17
2019-02-15T05:59:10.783Z,80.77
2019-02-15T06:01:37.458Z,77.07
2019-02-15T06:04:04.052Z,73.43
2019-02-15T06:06:30.695Z,77.70
2019-02-15T06:08:57.304Z,73.37
2019-02-15T06:11:23.874Z,70.80
2019-02-15T06:13:50.761Z,74.17
2019-02-15T06:16:17.393Z,68.23
2019-02-15T06:18:44.136Z,67.73
2019-02-15T06:21:10.741Z,69.17
2019-02-15T06:23:38.307Z,68.77
2019-02-15T06:26:04.863Z,71.87
2019-02-15T06:28:31.586Z,69.67
2019-02-15T06:30:58.124Z,67.80
2019-02-15T06:33:24.742Z,68.17
2019-02-15T06:35:51.356Z,70.20
2019-02-15T06:38:18.029Z,63.40
2019-02-15T06:40:45.995Z,63.50
2019-02-15T06:43:12.676Z,62.73
2019-02-15T06:45:39.214Z,66.17
2019-02-15T06:48:05.810Z,70.27
2019-02-15T06:50:32.398Z,69.40
2019-02-15T06:52:58.967Z,73.57
2019-02-15T06:55:25.595Z,69.40
2019-02-15T06:58:51.097Z,66.60
2019-02-15T07:01:19.671Z,79.33
2019-02-15T07:03:49.579Z,69.50
2019-02-15T07:06:16.128Z,66.23
2019-02-15T07:08:42.817Z,68.50
2019-02-15T07:11:09.370Z,69.67
2019-02-15T07:13:35.941Z,71.37
2019-02-15T07:16:02.548Z,63.87
2019-02-15T07:18:29.106Z,65.80
2019-02-15T07:20:55.702Z,65.90
2019-02-15T07:23:22.239Z,70.03
2019-02-15T07:25:49.581Z,69.67
2019-02-15T07:28:16.536Z,65.93
2019-02-15T07:30:46.265Z,65.63
2019-02-15T07:33:12.969Z,62.00
2019-02-15T07:35:39.757Z,72.17
2019-02-15T07:38:06.463Z,64.23
2019-02-15T07:40:33.013Z,65.47
2019-02-15T07:42:59.831Z,67.07
2019-02-15T07:45:26.738Z,69.57
2019-02-15T07:47:53.338Z,65.60
2019-02-15T07:50:20.117Z,61.73
2019-02-15T07:52:46.723Z,60.47
2019-02-15T07:55:13.271Z,60.50
2019-02-15T07:57:40.453Z,60.27
2019-02-15T08:00:13.240Z,60.67
2019-02-15T08:02:39.820Z,64.13
2019-02-15T08:05:07.986Z,63.10
2019-02-15T08:07:34.620Z,56.27
2019-02-15T08:10:01.455Z,58.67
2019-02-15T08:12:28.191Z,57.40
2019-02-15T08:14:54.951Z,63.57
2019-02-15T08:17:21.568Z,63.47
2019-02-15T08:19:48.177Z,57.00
2019-02-15T08:22:14.939Z,62.13
2019-02-15T08:24:41.522Z,58.23
2019-02-15T08:27:08.132Z,65.20
2019-02-15T08:29:34.690Z,55.03
2019-02-15T08:32:01.316Z,52.10
2019-02-15T08:34:27.923Z,53.80
2019-02-15T08:36:54.554Z,49.00
2019-02-15T08:39:21.153Z,48.63
2019-02-15T08:42:00.534Z,52.00
2019-02-15T08:44:16.232Z,50.27
2019-02-15T08:46:43.147Z,50.80
2019-02-15T08:49:09.936Z,47.33
2019-02-15T08:51:36.528Z,47.93
2019-02-15T08:54:03.117Z,52.97
2019-02-15T08:56:29.719Z,47.97
2019-02-15T08:58:56.456Z,47.47
2019-02-15T09:01:23.139Z,46.07
2019-02-15T09:03:49.672Z,46.03
2019-02-15T09:06:16.273Z,42.03
2019-02-15T09:08:42.922Z,40.03
2019-02-15T09:11:09.610Z,40.87
2019-02-15T09:13:36.379Z,35.73
2019-02-15T09:16:10.138Z,33.73
2019-02-15T09:18:31.449Z,47.03
2019-02-15T09:20:58.103Z,48.40
2019-02-15T09:23:24.661Z,47.90
2019-02-15T09:25:51.246Z,39.80
2019-02-15T09:28:19.789Z,49.33
2019-02-15T09:30:48.322Z,37.40
2019-02-15T09:33:14.874Z,36.63
2019-02-15T09:35:41.471Z,35.73
2019-02-15T09:38:08.059Z,35.30
2019-02-15T09:40:34.629Z,45.50
2019-02-15T09:43:01.218Z,43.87
2019-02-15T09:46:24.311Z,38.40
2019-02-15T09:48:50.855Z,41.47
2019-02-15T09:51:17.547Z,38.07
2019-02-15T09:53:44.354Z,37.30
2019-02-15T09:57:07.469Z,32.40
2019-02-15T09:59:34.084Z,40.93
2019-02-15T10:02:00.772Z,34.60
2019-02-15T10:04:27.391Z,32.17
2019-02-15T10:06:54.035Z,32.50
2019-02-15T10:09:20.605Z,33.37
2019-02-15T10:11:47.251Z,31.23
2019-02-15T10:14:13.855Z,34.03
2019-02-15T10:16:40.531Z,34.03
2019-02-15T10:19:07.136Z,29.73
2019-02-15T10:21:33.742Z,26.07
2019-02-15T10:24:00.310Z,36.33
2019-02-15T10:26:27.080Z,31.90
2019-02-15T10:28:53.783Z,30.27
2019-02-15T10:31:20.466Z,27.03
2019-02-15T10:33:47.105Z,33.27
2019-02-15T10:36:13.804Z,30.53
2019-02-15T10:38:40.395Z,29.13
2019-02-15T10:41:06.983Z,29.90
2019-02-15T10:43:33.612Z,34.43
2019-02-15T10:46:00.188Z,30.23
2019-02-15T10:48:26.885Z,33.37
2019-02-15T10:50:53.531Z,31.70
2019-02-15T10:53:20.093Z,33.50
2019-02-15T10:55:46.660Z,30.90
2019-02-15T10:58:15.982Z,32.00
2019-02-15T11:00:42.621Z,29.53
2019-02-15T11:03:09.293Z,34.17
2019-02-15T11:06:32.365Z,30.13
2019-02-15T11:08:58.936Z,31.60
2019-02-15T11:11:25.639Z,29.93
2019-02-15T11:13:52.215Z,34.17
2019-02-15T11:16:19.880Z,26.93
2019-02-15T11:18:46.515Z,29.70
2019-02-15T11:21:14.557Z,31.57
2019-02-15T11:23:41.152Z,33.33
2019-02-15T11:26:07.735Z,31.80
2019-02-15T11:28:34.598Z,29.60
2019-02-15T11:31:01.205Z,32.20
2019-02-15T11:33:27.736Z,30.93
2019-02-15T11:35:54.340Z,43.13
2019-02-15T11:38:20.878Z,31.07
2019-02-15T11:40:47.490Z,33.50
2019-02-15T11:43:15.164Z,38.20
2019-02-15T11:45:42.011Z,41.53
2019-02-15T11:48:08.613Z,39.70
2019-02-15T11:50:36.004Z,39.60
2019-02-15T11:53:02.938Z,42.93
2019-02-15T11:55:29.541Z,48.80
2019-02-15T11:57:56.987Z,45.73
2019-02-15T12:00:26.256Z,55.77
2019-02-15T12:02:52.832Z,43.80
2019-02-15T12:05:21.473Z,43.87
2019-02-15T12:07:48.072Z,49.47
2019-02-15T12:10:14.646Z,53.73
2019-02-15T12:12:41.261Z,66.93
2019-02-15T12:15:09.370Z,55.53
2019-02-15T12:17:35.911Z,60.90
2019-02-15T12:20:07.580Z,58.60
2019-02-15T12:22:34.153Z,56.07
2019-02-15T12:25:00.729Z,68.30
2019-02-15T12:27:27.362Z,52.80
2019-02-15T12:29:53.943Z,59.33
2019-02-15T12:32:20.572Z,52.43
2019-02-15T12:34:47.376Z,50.20
2019-02-15T12:37:13.935Z,55.30
2019-02-15T12:39:40.799Z,54.87
2019-02-15T12:42:10.396Z,56.50
2019-02-15T12:44:37.781Z,50.83
2019-02-15T12:47:04.402Z,61.80
2019-02-15T12:49:30.974Z,73.93
2019-02-15T12:51:57.538Z,70.20
2019-02-15T12:54:24.379Z,56.73
2019-02-15T12:56:50.977Z,59.63
2019-02-15T12:59:29.648Z,58.20
2019-02-15T13:01:56.425Z,53.00
2019-02-15T13:04:23.111Z,61.90
2019-02-15T13:06:49.860Z,59.20
2019-02-15T13:09:16.668Z,62.73
2019-02-15T13:11:44.715Z,69.30
2019-02-15T13:14:11.399Z,52.13
2019-02-15T13:16:37.990Z,75.00
2019-02-15T13:19:04.554Z,60.90
2019-02-15T13:21:31.121Z,53.63
2019-02-15T13:23:57.905Z,59.00
2019-02-15T13:26:24.639Z,69.10
2019-02-15T13:28:51.318Z,68.63
2019-02-15T13:31:17.960Z,74.73
2019-02-15T13:34:40.833Z,73.97
2019-02-15T13:37:07.501Z,56.97
2019-02-15T13:39:34.289Z,58.30
2019-02-15T13:42:00.868Z,71.87
2019-02-15T13:45:23.853Z,70.53
2019-02-15T13:47:50.795Z,73.27
2019-02-15T13:50:19.064Z,73.07
2019-02-15T13:52:46.037Z,65.27
2019-02-15T13:55:12.673Z,61.53
2019-02-15T13:57:39.347Z,64.13
2019-02-15T14:00:11.624Z,70.63
2019-02-15T14:02:38.255Z,61.00
2019-02-15T14:05:09.698Z,66.13
2019-02-15T14:07:36.536Z,69.83
2019-02-15T14:10:07.334Z,66.40
2019-02-15T14:12:35.037Z,50.67
2019-02-15T14:15:02.701Z,69.30
2019-02-15T14:17:29.301Z,64.63
2019-02-15T14:19:55.907Z,56.90
2019-02-15T14:22:22.639Z,95.60
2019-02-15T14:24:49.398Z,77.07
2019-02-15T14:27:16.020Z,63.17
2019-02-15T14:29:42.596Z,65.97
2019-02-15T14:32:09.203Z,69.30
2019-02-15T14:34:35.899Z,70.97
2019-02-15T14:37:02.551Z,79.97
2019-02-15T14:39:29.229Z,88.23
2019-02-15T14:41:55.858Z,71.90
2019-02-15T14:44:22.598Z,72.07
2019-02-15T14:46:49.184Z,80.47
2019-02-15T14:49:15.748Z,78.03
2019-02-15T14:51:42.419Z,82.63
2019-02-15T14:54:10.295Z,80.67
2019-02-15T14:56:37.156Z,70.73
2019-02-15T14:59:03.703Z,75.17
2019-02-15T15:01:31.254Z,92.13
2019-02-15T15:03:57.861Z,100.70
2019-02-15T15:06:24.484Z,76.67
2019-02-15T15:08:51.043Z,72.70
2019-02-15T15:11:17.627Z,71.07
2019-02-15T15:13:44.366Z,77.87
2019-02-15T15:16:10.970Z,84.87
2019-02-15T15:18:37.529Z,81.97
2019-02-15T15:21:04.169Z,80.23
2019-02-15T15:23:30.800Z,76.83
2019-02-15T15:25:57.403Z,82.30
2019-02-15T15:28:23.997Z,116.10
2019-02-15T15:30:50.594Z,100.27
2019-02-15T15:33:17.383Z,139.63
2019-02-15T15:35:44.001Z,129.20
2019-02-15T15:39:07.777Z,93.73
2019-02-15T15:41:34.693Z,123.67
2019-02-15T15:44:01.353Z,145.50
2019-02-15T15:46:28.021Z,111.27
2019-02-15T15:48:54.626Z,111.77
2019-02-15T15:51:21.315Z,75.03
2019-02-15T15:53:48.078Z,80.50
2019-02-15T15:56:14.717Z,81.13
2019-02-15T15:58:41.280Z,80.73
2019-02-15T16:01:07.883Z,81.10
2019-02-15T16:03:34.616Z,82.87
2019-02-15T16:06:01.370Z,91.93
2019-02-15T16:08:28.212Z,144.73
2019-02-15T16:10:55.493Z,125.13
2019-02-15T16:13:22.642Z,107.77
2019-02-15T16:15:49.206Z,96.53
2019-02-15T16:18:15.839Z,94.23
2019-02-15T16:20:42.583Z,110.33
2019-02-15T16:23:09.449Z,97.80
2019-02-15T16:25:36.451Z,89.90
2019-02-15T16:28:03.319Z,95.50
2019-02-15T16:30:29.935Z,93.87
2019-02-15T16:32:56.632Z,103.33
2019-02-15T16:35:23.283Z,89.53
2019-02-15T16:37:49.978Z,85.20
2019-02-15T16:40:16.905Z,84.10
2019-02-15T16:42:45.272Z,84.37
2019-02-15T16:45:15.118Z,93.00
2019-02-15T16:47:42.158Z,96.47
2019-02-15T16:50:09.939Z,89.53
2019-02-15T16:52:36.917Z,86.10
2019-02-15T16:55:12.684Z,79.67
2019-02-15T16:58:31.783Z,91.10
2019-02-15T17:00:58.479Z,86.57
2019-02-15T17:03:25.237Z,84.27
2019-02-15T17:05:51.812Z,85.13
2019-02-15T17:08:18.422Z,91.13
2019-02-15T17:10:45.231Z,102.47
2019-02-15T17:13:11.918Z,108.97
2019-02-15T17:15:38.890Z,95.80
2019-02-15T17:18:05.536Z,105.17
2019-02-15T17:20:33.025Z,95.37
2019-02-15T17:22:59.761Z,96.73
2019-02-15T17:25:27.047Z,109.30
2019-02-15T17:27:53.664Z,96.53
2019-02-15T17:30:20.379Z,93.00
2019-02-15T17:32:46.976Z,90.70
2019-02-15T17:35:13.577Z,94.83
2019-02-15T17:37:40.161Z,92.03
2019-02-15T17:40:10.666Z,88.80
2019-02-15T17:42:37.293Z,90.07
2019-02-15T17:45:07.248Z,92.53
2019-02-15T17:47:33.902Z,88.93
2019-02-15T17:50:00.474Z,85.47
2019-02-15T17:52:27.099Z,87.10
2019-02-15T17:54:53.707Z,92.40
2019-02-15T17:57:20.303Z,88.90
2019-02-15T17:59:46.978Z,92.00
2019-02-15T18:02:13.748Z,87.23
2019-02-15T18:04:40.395Z,96.60
2019-02-15T18:07:06.999Z,87.53
2019-02-15T18:09:33.596Z,79.03
2019-02-15T18:12:00.169Z,78.60
2019-02-15T18:14:26.911Z,84.40
2019-02-15T18:16:53.506Z,74.93
2019-02-15T18:19:20.101Z,77.70
2019-02-15T18:21:47.129Z,81.27
2019-02-15T18:24:14.005Z,89.33
2019-02-15T18:26:40.566Z,75.33
2019-02-15T18:29:07.151Z,80.90
2019-02-15T18:31:33.753Z,81.13
2019-02-15T18:34:00.392Z,106.00
2019-02-15T18:36:27.137Z,90.27
2019-02-15T18:38:53.730Z,88.07
2019-02-15T18:41:20.361Z,77.00
2019-02-15T18:43:47.059Z,76.07
2019-02-15T18:46:13.806Z,78.07
2019-02-15T18:48:40.419Z,79.63
2019-02-15T18:51:07.004Z,84.93
2019-02-15T18:53:33.883Z,75.37
2019-02-15T18:56:00.477Z,71.13
2019-02-15T18:58:27.060Z,79.83
2019-02-15T19:00:53.605Z,78.37
2019-02-15T19:03:20.261Z,75.07
2019-02-15T19:05:47.201Z,81.10
2019-02-15T19:08:13.797Z,81.23
2019-02-15T19:10:40.529Z,89.63
2019-02-15T19:13:07.109Z,79.80
2019-02-15T19:15:33.682Z,84.37
2019-02-15T19:18:00.282Z,88.43
2019-02-15T19:20:26.889Z,90.83
2019-02-15T19:22:53.467Z,121.40
2019-02-15T19:25:20.065Z,143.37
2019-02-15T19:27:47.067Z,152.63
2019-02-15T19:30:18.674Z,91.97
2019-02-15T19:32:45.569Z,84.27
2019-02-15T19:35:12.614Z,76.23
2019-02-15T19:37:39.226Z,76.37
2019-02-15T19:40:10.666Z,88.13
2019-02-15T19:42:39.065Z,119.17
2019-02-15T19:45:09.459Z,104.30
2019-02-15T19:47:36.190Z,112.70
2019-02-15T19:50:08.134Z,144.10
2019-02-15T19:52:34.692Z,112.43
2019-02-15T19:55:01.633Z,127.43
2019-02-15T19:57:28.341Z,94.23
2019-02-15T19:59:54.928Z,86.33
2019-02-15T20:02:21.874Z,85.20
2019-02-15T20:04:48.923Z,145.00
2019-02-15T20:07:15.557Z,108.17
2019-02-15T20:09:42.117Z,80.53
2019-02-15T20:12:08.735Z,91.60
2019-02-15T20:14:35.460Z,77.97
2019-02-15T20:17:02.034Z,77.30
2019-02-15T20:19:28.626Z,76.50
2019-02-15T20:21:55.232Z,85.93
2019-02-15T20:24:21.826Z,83.10
2019-02-15T20:26:48.441Z,123.17
2019-02-15T20:29:14.989Z,83.87
2019-02-15T20:31:41.617Z,120.10
2019-02-15T20:34:08.503Z,101.63
2019-02-15T20:36:35.076Z,283.40
2019-02-15T20:39:01.689Z,201.90
2019-02-15T20:42:26.947Z,193.03
2019-02-15T20:44:54.552Z,190.47
2019-02-15T20:47:21.948Z,162.23
2019-02-15T20:49:57.630Z,121.53
2019-02-15T20:52:18.707Z,104.60
2019-02-15T20:54:45.494Z,106.43
2019-02-15T20:57:12.705Z,104.57
2019-02-15T20:59:40.096Z,112.30
2019-02-15T21:02:06.745Z,112.87
2019-02-15T21:04:33.420Z,109.67
2019-02-15T21:07:00.113Z,103.87
2019-02-15T21:09:26.669Z,94.83
2019-02-15T21:11:53.208Z,86.17
2019-02-15T21:14:19.834Z,82.63
2019-02-15T21:16:46.576Z,93.97
2019-02-15T21:19:14.729Z,92.80
2019-02-15T21:21:41.459Z,94.63
2019-02-15T21:24:08.581Z,94.63
2019-02-15T21:26:35.790Z,82.57
2019-02-15T21:29:02.422Z,94.80
2019-02-15T21:31:29.619Z,98.37
2019-02-15T21:33:56.360Z,103.53
2019-02-15T21:36:23.302Z,100.40
2019-02-15T21:38:50.045Z,99.33
2019-02-15T21:41:16.724Z,106.93
2019-02-15T21:43:43.345Z,99.60
2019-02-15T21:46:13.073Z,106.83
2019-02-15T21:48:39.796Z,128.70
2019-02-15T21:54:51.156Z,104.37
2019-02-15T21:57:18.115Z,98.30
2019-02-15T21:59:44.914Z,93.63
2019-02-15T22:02:12.738Z,94.77
2019-02-15T22:04:51.400Z,91.77
2019-02-15T22:07:18.903Z,91.17
2019-02-15T22:09:45.699Z,90.10
2019-02-15T22:12:12.341Z,89.37
2019-02-15T22:14:38.932Z,98.63
2019-02-15T22:17:05.522Z,103.10
2019-02-15T22:19:32.104Z,120.83
2019-02-15T22:21:58.712Z,108.60
2019-02-15T22:24:25.265Z,106.07
2019-02-15T22:26:51.842Z,113.37
2019-02-15T22:29:18.513Z,99.57
2019-02-15T22:31:45.223Z,127.97
2019-02-15T22:34:11.855Z,89.97
2019-02-15T22:36:38.561Z,91.73
2019-02-15T22:39:05.264Z,94.20
2019-02-15T22:41:33.252Z,101.47
2019-02-15T22:43:59.870Z,94.67
2019-02-15T22:46:26.497Z,120.13
2019-02-15T22:48:53.049Z,121.30
2019-02-15T22:51:19.616Z,107.73
2019-02-15T22:53:46.362Z,124.97
2019-02-15T22:56:12.962Z,125.33
2019-02-15T22:58:39.536Z,107.57
2019-02-15T23:01:10.379Z,111.47
2019-02-15T23:03:37.215Z,103.20
2019-02-15T23:06:03.815Z,111.27
2019-02-15T23:08:31.863Z,114.67
2019-02-15T23:10:58.412Z,108.07
2019-02-15T23:13:25.784Z,98.07
2019-02-15T23:15:52.337Z,98.80
2019-02-15T23:18:19.217Z,101.30
2019-02-15T23:20:46.293Z,89.77
2019-02-15T23:23:12.920Z,91.30
2019-02-15T23:25:39.506Z,99.63
2019-02-15T23:28:06.134Z,106.53
2019-02-15T23:30:32.715Z,95.23
2019-02-15T23:32:59.287Z,103.83
2019-02-15T23:35:25.857Z,101.83
2019-02-15T23:37:52.493Z,95.83
2019-02-15T23:40:19.097Z,90.20
2019-02-15T23:42:45.791Z,103.97
2019-02-15T23:45:12.373Z,95.83
2019-02-15T23:47:38.935Z,94.97
2019-02-15T23:50:07.927Z,89.60
2019-02-15T23:52:34.499Z,96.73
2019-02-15T23:55:01.169Z,92.33
2019-02-15T23:57:27.714Z,131.17
2019-02-15T23:59:54.324Z,106.57
